Météo Nord-Pas-de-Calais   La météo au plus près de chez vous

Station météorologique

Observations météo à Pte Du Raz (29168)

29168001 67 m Dernier relevé à 15:36
22.2°C
Vent 9 km/h

Journée consultée

Samedi 5 Septembre 2026

Synthèse de la journée

Périodes de référence en UTC

Température maximale

22.3°C

à 15:30

06h 06h

Température minimale

15.5°C

à 06:24

18h 18h

Rafale maximale

17 km/h

à 10:24

00h 00h

Précipitations

0 mm

Cumul quotidien

06h 06h

Graphiques de la journée

Heure locale Réduire

Données détaillées

Relevés météo

Pas de 6 minutes Afficher les relevés infra-horaires
Relevés météo détaillés à Pte Du Raz pour le Samedi 5 Septembre 2026
Heure Température °C Vent moyen (raf.), km/h Précipitations mm
15:36 22.2 °C 7 km/h (10 km/h) 0 mm0 mm
15:30 22.3 °C 8 km/h (11 km/h) 0 mm0 mm
15:24 21.4 °C 9 km/h (11 km/h) 0 mm0 mm
15:18 21.9 °C 9 km/h (12 km/h) 0 mm0 mm
15:12 21.9 °C 9 km/h (12 km/h) 0 mm0 mm
15:06 21.1 °C 8 km/h (12 km/h) 0 mm0 mm
15:00 20.3 °C 7 km/h (11 km/h) 0 mm0 mm
14:54 20.4 °C 9 km/h (11 km/h) 0 mm0 mm
14:48 20.4 °C 9 km/h (11 km/h) 0 mm0 mm
14:42 21.1 °C 9 km/h (12 km/h) 0 mm0 mm
14:36 21.6 °C 9 km/h (12 km/h) 0 mm0 mm
14:30 21.2 °C 9 km/h (13 km/h) 0 mm0 mm
14:24 21 °C 9 km/h (13 km/h) 0 mm0 mm
14:18 21.4 °C 9 km/h (12 km/h) 0 mm0 mm
14:12 21.7 °C 9 km/h (12 km/h) 0 mm0 mm
14:06 21.3 °C 8 km/h (12 km/h) 0 mm0 mm
14:00 20.1 °C 7 km/h (10 km/h) 0 mm0 mm
13:54 20.8 °C 8 km/h (11 km/h) 0 mm0 mm
13:48 20.4 °C 7 km/h (11 km/h) 0 mm0 mm
13:42 20.8 °C 5 km/h (10 km/h) 0 mm0 mm
13:36 20.9 °C 5 km/h (9 km/h) 0 mm0 mm
13:30 20.7 °C 6 km/h (10 km/h) 0 mm0 mm
13:24 20.6 °C 6 km/h (9 km/h) 0 mm0 mm
13:18 21.1 °C 4 km/h (9 km/h) 0 mm0 mm
13:12 21 °C 5 km/h (9 km/h) 0 mm0 mm
13:06 21.1 °C 5 km/h (9 km/h) 0 mm0 mm
13:00 21.3 °C 5 km/h (11 km/h) 0 mm0 mm
12:54 22.1 °C 5 km/h (11 km/h) 0 mm0 mm
12:48 21.8 °C 6 km/h (12 km/h) 0 mm0 mm
12:42 21.9 °C 5 km/h (11 km/h) 0 mm0 mm
12:36 21.8 °C 6 km/h (12 km/h) 0 mm0 mm
12:30 21.3 °C 7 km/h (11 km/h) 0 mm0 mm
12:24 20.8 °C 6 km/h (11 km/h) 0 mm0 mm
12:18 20.6 °C 5 km/h (11 km/h) 0 mm0 mm
12:12 20.2 °C 6 km/h (11 km/h) 0 mm0 mm
12:06 19.7 °C 6 km/h (10 km/h) 0 mm0 mm
12:00 19.7 °C 5 km/h (9 km/h) 0 mm0 mm
11:54 19.2 °C 6 km/h (9 km/h) 0 mm0 mm
11:48 18.9 °C 5 km/h (9 km/h) 0 mm0 mm
11:42 19.3 °C 4 km/h (10 km/h) 0 mm0 mm
11:36 18.8 °C 8 km/h (13 km/h) 0 mm0 mm
11:30 19 °C 10 km/h (14 km/h) 0 mm0 mm
11:24 18.7 °C 8 km/h (14 km/h) 0 mm0 mm
11:18 18.9 °C 7 km/h (12 km/h) 0 mm0 mm
11:12 18.3 °C 9 km/h (13 km/h) 0 mm0 mm
11:06 18.4 °C 8 km/h (13 km/h) 0 mm0 mm
11:00 18.3 °C 9 km/h (12 km/h) 0 mm0 mm
10:54 18.1 °C 9 km/h (14 km/h) 0 mm0 mm
10:48 17.9 °C 9 km/h (14 km/h) 0 mm0 mm
10:42 18 °C 8 km/h (13 km/h) 0 mm0 mm
10:36 18.1 °C 10 km/h (14 km/h) 0 mm0 mm
10:30 18 °C 11 km/h (14 km/h) 0 mm0 mm
10:24 17.6 °C 11 km/h (17 km/h) 0 mm0 mm
10:18 17.2 °C 9 km/h (15 km/h) 0 mm0 mm
10:12 17.2 °C 9 km/h (12 km/h) 0 mm0 mm
10:06 17.2 °C 9 km/h (13 km/h) 0 mm0 mm
10:00 17.3 °C 11 km/h (15 km/h) 0 mm0 mm
09:54 17.2 °C 11 km/h (14 km/h) 0 mm0 mm
09:48 17.3 °C 11 km/h (15 km/h) 0 mm0 mm
09:42 17.2 °C 12 km/h (15 km/h) 0 mm0 mm
09:36 17.1 °C 11 km/h (14 km/h) 0 mm0 mm
09:30 17 °C 10 km/h (13 km/h) 0 mm0 mm
09:24 16.7 °C 10 km/h (12 km/h) 0 mm0 mm
09:18 16.5 °C 10 km/h (13 km/h) 0 mm0 mm
09:12 16.4 °C 10 km/h (13 km/h) 0 mm0 mm
09:06 16.3 °C 10 km/h (13 km/h) 0 mm0 mm
09:00 16 °C 10 km/h (13 km/h) 0 mm0 mm
08:54 16 °C 11 km/h (15 km/h) 0 mm0 mm
08:48 16 °C 13 km/h (15 km/h) 0 mm0 mm
08:42 16 °C 11 km/h (15 km/h) 0 mm0 mm
08:36 16 °C 10 km/h (13 km/h) 0 mm0 mm
08:30 16 °C 9 km/h (12 km/h) 0 mm0 mm
08:24 16.1 °C 9 km/h (10 km/h) 0 mm0 mm
08:18 16.1 °C 9 km/h (10 km/h) 0 mm0 mm
08:12 16 °C 8 km/h (10 km/h) 0 mm0 mm
08:06 16 °C 6 km/h (9 km/h) 0 mm0 mm
08:00 15.9 °C 5 km/h (7 km/h) 0 mm0 mm
07:54 15.9 °C 4 km/h (5 km/h) 0 mm0 mm
07:48 15.8 °C 4 km/h (6 km/h) 0 mm0 mm
07:42 15.9 °C 4 km/h (6 km/h) 0 mm0 mm
07:36 15.8 °C 3 km/h (5 km/h) 0 mm0 mm
07:30 15.7 °C 2 km/h (6 km/h) 0 mm0 mm
07:24 15.7 °C 2 km/h (6 km/h) 0 mm0 mm
07:18 15.7 °C 2 km/h (3 km/h) 0 mm0 mm
07:12 15.9 °C 2 km/h (3 km/h) 0 mm0 mm
07:06 15.9 °C 3 km/h (6 km/h) 0 mm0 mm
07:00 16.1 °C 5 km/h (6 km/h) 0 mm0 mm
06:54 16 °C 3 km/h (5 km/h) 0 mm0 mm
06:48 15.8 °C 2 km/h (3 km/h) 0 mm0 mm
06:42 15.7 °C 0 km/h (3 km/h) 0 mm0 mm
06:36 15.6 °C 2 km/h (3 km/h) 0 mm0 mm
06:30 15.5 °C 2 km/h (4 km/h) 0 mm0 mm
06:24 15.5 °C 0 km/h (4 km/h) 0 mm0 mm
06:18 15.6 °C 3 km/h (4 km/h) 0 mm0 mm
06:12 15.7 °C 2 km/h (4 km/h) 0 mm0 mm
06:06 15.7 °C 0 km/h (3 km/h) 0 mm0 mm
06:00 15.9 °C 0 km/h (3 km/h) 0 mm0 mm
05:54 15.9 °C 0 km/h (3 km/h) 0 mm0 mm
05:48 16 °C 0 km/h (3 km/h) 0 mm0 mm
05:42 16 °C 2 km/h (4 km/h) 0 mm0 mm
05:36 15.9 °C 2 km/h (4 km/h) 0 mm0 mm
05:30 15.9 °C 2 km/h (6 km/h) 0 mm0 mm
05:24 15.9 °C 5 km/h (7 km/h) 0 mm0 mm
05:18 15.9 °C 6 km/h (7 km/h) 0 mm0 mm
05:12 15.9 °C 6 km/h (8 km/h) 0 mm0 mm
05:06 15.9 °C 7 km/h (9 km/h) 0 mm0 mm
05:00 15.8 °C 8 km/h (9 km/h) 0 mm0 mm
04:54 15.9 °C 7 km/h (9 km/h) 0 mm0 mm
04:48 16 °C 6 km/h (8 km/h) 0 mm0 mm
04:42 15.9 °C 5 km/h (7 km/h) 0 mm0 mm
04:36 15.9 °C 6 km/h (8 km/h) 0 mm0 mm
04:30 15.9 °C 6 km/h (9 km/h) 0 mm0 mm
04:24 15.8 °C 6 km/h (9 km/h) 0 mm0 mm
04:18 15.9 °C 6 km/h (8 km/h) 0 mm0 mm
04:12 15.8 °C 6 km/h (8 km/h) 0 mm0 mm
04:06 15.8 °C 6 km/h (7 km/h) 0 mm0 mm
04:00 15.9 °C 5 km/h (6 km/h) 0 mm0 mm
03:54 15.9 °C 6 km/h (8 km/h) 0 mm0 mm
03:48 15.9 °C 7 km/h (8 km/h) 0 mm0 mm
03:42 15.8 °C 7 km/h (8 km/h) 0 mm0 mm
03:36 15.9 °C 7 km/h (8 km/h) 0 mm0 mm
03:30 15.9 °C 8 km/h (10 km/h) 0 mm0 mm
03:24 15.9 °C 7 km/h (9 km/h) 0 mm0 mm
03:18 16 °C 8 km/h (10 km/h) 0 mm0 mm
03:12 16 °C 9 km/h (11 km/h) 0 mm0 mm
03:06 16 °C 9 km/h (10 km/h) 0 mm0 mm
03:00 16.1 °C 6 km/h (10 km/h) 0 mm0 mm
02:54 16.1 °C 6 km/h (10 km/h) 0 mm0 mm
02:48 16.1 °C 6 km/h (10 km/h) 0 mm0 mm
02:42 16.1 °C 4 km/h (7 km/h) 0 mm0 mm
02:36 16.1 °C 4 km/h (8 km/h) 0 mm0 mm
02:30 16.2 °C 6 km/h (11 km/h) 0 mm0 mm
02:24 16.2 °C 5 km/h (11 km/h) 0 mm0 mm
02:18 16.2 °C 5 km/h (8 km/h) 0 mm0 mm
02:12 16.1 °C 4 km/h (8 km/h) 0 mm0 mm
02:06 16.1 °C 4 km/h (8 km/h) 0 mm0 mm
02:00 16.2 °C 6 km/h (13 km/h) 0 mm0 mm
01:54 16.1 °C 10 km/h (15 km/h) 0 mm0 mm
01:48 16.1 °C 9 km/h (15 km/h) 0 mm0 mm
01:42 16.2 °C 8 km/h (12 km/h) 0 mm0 mm
01:36 16.2 °C 10 km/h (15 km/h) 0 mm0 mm
01:30 16.2 °C 11 km/h (15 km/h) 0 mm0 mm
01:24 16.2 °C 12 km/h (17 km/h) 0 mm0 mm
01:18 16.2 °C 15 km/h (18 km/h) 0 mm0 mm
01:12 16.2 °C 17 km/h (19 km/h) 0 mm0 mm
01:06 16.3 °C 17 km/h (19 km/h) 0 mm0 mm
01:00 16.3 °C 15 km/h (17 km/h) 0 mm0 mm
00:54 16.3 °C 14 km/h (17 km/h) 0 mm0 mm
00:48 16.3 °C 12 km/h (17 km/h) 0 mm0 mm
00:42 16.3 °C 14 km/h (19 km/h) 0 mm0 mm
00:36 16.3 °C 17 km/h (19 km/h) 0 mm0 mm
00:30 16.3 °C 18 km/h (20 km/h) 0 mm0 mm
00:24 16.4 °C 19 km/h (20 km/h) 0 mm0 mm
00:18 16.3 °C 17 km/h (18 km/h) 0 mm0 mm
00:12 16.4 °C 17 km/h (18 km/h) 0 mm0 mm
00:06 16.4 °C 18 km/h (19 km/h) 0 mm0 mm
00:00 16.4 °C 18 km/h (19 km/h) 0 mm0 mm

Données via Météo-France

Relevés météo à Pte Du Raz

Cette page rassemble les observations de la station de Pte Du Raz : température, humidité, vent, précipitations et pression atmosphérique. Les graphiques facilitent le suivi de la journée, tandis que le tableau donne accès aux mesures horaires et infra-horaires disponibles.

Pour replacer ces mesures dans leur contexte, consultez la climatologie de Pte Du Raz. Retrouvez aussi la carte des observations météo en temps réel.